sensor_id;sensor_type;location;lat;lon;timestamp;temperature;humidity
20977;DHT22;10647;51.016;3.720;2023-04-24T00:02:22;11.30;99.90
20977;DHT22;10647;51.016;3.720;2023-04-24T00:04:50;11.40;99.90
20977;DHT22;10647;51.016;3.720;2023-04-24T00:07:17;11.40;99.90
20977;DHT22;10647;51.016;3.720;2023-04-24T00:09:46;11.10;99.90
20977;DHT22;10647;51.016;3.720;2023-04-24T00:12:14;11.20;99.90
20977;DHT22;10647;51.016;3.720;2023-04-24T00:14:41;11.10;99.90
20977;DHT22;10647;51.016;3.720;2023-04-24T00:17:09;11.20;99.90
20977;DHT22;10647;51.016;3.720;2023-04-24T00:19:36;11.20;99.90
20977;DHT22;10647;51.016;3.720;2023-04-24T00:22:04;11.30;99.90
20977;DHT22;10647;51.016;3.720;2023-04-24T00:24:33;11.20;99.90
20977;DHT22;10647;51.016;3.720;2023-04-24T00:27:01;11.30;99.90
20977;DHT22;10647;51.016;3.720;2023-04-24T00:29:28;11.20;99.90
20977;DHT22;10647;51.016;3.720;2023-04-24T00:31:56;11.10;99.90
20977;DHT22;10647;51.016;3.720;2023-04-24T00:34:24;11.00;99.90
20977;DHT22;10647;51.016;3.720;2023-04-24T00:36:51;11.00;99.90
20977;DHT22;10647;51.016;3.720;2023-04-24T00:39:19;11.10;99.90
20977;DHT22;10647;51.016;3.720;2023-04-24T00:41:48;10.90;99.90
20977;DHT22;10647;51.016;3.720;2023-04-24T00:44:17;11.00;99.90
20977;DHT22;10647;51.016;3.720;2023-04-24T00:46:46;11.10;99.90
20977;DHT22;10647;51.016;3.720;2023-04-24T00:49:15;11.10;99.90
20977;DHT22;10647;51.016;3.720;2023-04-24T00:51:43;11.10;99.90
20977;DHT22;10647;51.016;3.720;2023-04-24T00:57:06;11.10;99.90
20977;DHT22;10647;51.016;3.720;2023-04-24T00:59:53;11.00;99.90
20977;DHT22;10647;51.016;3.720;2023-04-24T01:02:22;11.20;99.90
20977;DHT22;10647;51.016;3.720;2023-04-24T01:04:52;11.10;99.90
20977;DHT22;10647;51.016;3.720;2023-04-24T01:07:20;11.10;99.90
20977;DHT22;10647;51.016;3.720;2023-04-24T01:09:48;11.20;99.90
20977;DHT22;10647;51.016;3.720;2023-04-24T01:12:18;11.10;99.90
20977;DHT22;10647;51.016;3.720;2023-04-24T01:14:46;11.10;99.90
20977;DHT22;10647;51.016;3.720;2023-04-24T01:17:13;11.20;99.90
20977;DHT22;10647;51.016;3.720;2023-04-24T01:19:41;11.10;99.90
20977;DHT22;10647;51.016;3.720;2023-04-24T01:22:16;11.20;99.90
20977;DHT22;10647;51.016;3.720;2023-04-24T01:24:41;11.10;99.90
20977;DHT22;10647;51.016;3.720;2023-04-24T01:27:10;11.10;99.90
20977;DHT22;10647;51.016;3.720;2023-04-24T01:29:40;11.00;99.90
20977;DHT22;10647;51.016;3.720;2023-04-24T01:32:07;11.00;99.90
20977;DHT22;10647;51.016;3.720;2023-04-24T01:34:36;10.90;99.90
20977;DHT22;10647;51.016;3.720;2023-04-24T01:37:04;10.80;99.90
20977;DHT22;10647;51.016;3.720;2023-04-24T01:39:32;10.80;99.90
20977;DHT22;10647;51.016;3.720;2023-04-24T01:42:00;10.90;99.90
20977;DHT22;10647;51.016;3.720;2023-04-24T01:44:30;10.90;99.90
20977;DHT22;10647;51.016;3.720;2023-04-24T01:46:59;11.00;99.90
20977;DHT22;10647;51.016;3.720;2023-04-24T01:49:27;10.90;99.90
20977;DHT22;10647;51.016;3.720;2023-04-24T01:51:55;10.90;99.90
20977;DHT22;10647;51.016;3.720;2023-04-24T01:54:22;10.90;99.90
20977;DHT22;10647;51.016;3.720;2023-04-24T01:56:51;10.90;99.90
20977;DHT22;10647;51.016;3.720;2023-04-24T01:59:20;11.00;99.90
20977;DHT22;10647;51.016;3.720;2023-04-24T02:01:49;11.00;99.90
20977;DHT22;10647;51.016;3.720;2023-04-24T02:04:16;10.90;99.90
20977;DHT22;10647;51.016;3.720;2023-04-24T02:06:44;11.00;99.90
20977;DHT22;10647;51.016;3.720;2023-04-24T02:09:11;11.00;99.90
20977;DHT22;10647;51.016;3.720;2023-04-24T02:11:39;11.00;99.90
20977;DHT22;10647;51.016;3.720;2023-04-24T02:14:07;10.80;99.90
20977;DHT22;10647;51.016;3.720;2023-04-24T02:16:35;10.70;99.90
20977;DHT22;10647;51.016;3.720;2023-04-24T02:19:03;10.70;99.90
20977;DHT22;10647;51.016;3.720;2023-04-24T02:21:31;10.70;99.90
20977;DHT22;10647;51.016;3.720;2023-04-24T02:24:05;10.80;99.90
20977;DHT22;10647;51.016;3.720;2023-04-24T02:26:38;10.70;99.90
20977;DHT22;10647;51.016;3.720;2023-04-24T02:29:06;10.80;99.90
20977;DHT22;10647;51.016;3.720;2023-04-24T02:31:34;10.70;99.90
20977;DHT22;10647;51.016;3.720;2023-04-24T02:34:01;10.60;99.90
20977;DHT22;10647;51.016;3.720;2023-04-24T02:36:29;10.60;99.90
20977;DHT22;10647;51.016;3.720;2023-04-24T02:38:56;10.60;99.90
20977;DHT22;10647;51.016;3.720;2023-04-24T02:41:25;10.60;99.90
20977;DHT22;10647;51.016;3.720;2023-04-24T02:43:54;10.60;99.90
20977;DHT22;10647;51.016;3.720;2023-04-24T02:46:23;10.70;99.90
20977;DHT22;10647;51.016;3.720;2023-04-24T02:48:50;10.70;99.90
20977;DHT22;10647;51.016;3.720;2023-04-24T02:51:18;10.60;99.90
20977;DHT22;10647;51.016;3.720;2023-04-24T02:53:45;10.50;99.90
20977;DHT22;10647;51.016;3.720;2023-04-24T02:56:13;10.50;99.90
20977;DHT22;10647;51.016;3.720;2023-04-24T02:58:42;10.60;99.90
20977;DHT22;10647;51.016;3.720;2023-04-24T03:01:09;10.70;99.90
20977;DHT22;10647;51.016;3.720;2023-04-24T03:03:38;10.70;99.90
20977;DHT22;10647;51.016;3.720;2023-04-24T03:06:06;10.70;99.90
20977;DHT22;10647;51.016;3.720;2023-04-24T03:08:34;10.70;99.90
20977;DHT22;10647;51.016;3.720;2023-04-24T03:11:02;10.70;99.90
20977;DHT22;10647;51.016;3.720;2023-04-24T03:13:29;10.80;99.90
20977;DHT22;10647;51.016;3.720;2023-04-24T03:15:58;10.70;99.90
20977;DHT22;10647;51.016;3.720;2023-04-24T03:18:25;10.70;99.90
20977;DHT22;10647;51.016;3.720;2023-04-24T03:20:53;10.40;99.90
20977;DHT22;10647;51.016;3.720;2023-04-24T03:23:22;10.40;99.90
20977;DHT22;10647;51.016;3.720;2023-04-24T03:25:50;10.50;99.90
20977;DHT22;10647;51.016;3.720;2023-04-24T03:28:17;10.50;99.90
20977;DHT22;10647;51.016;3.720;2023-04-24T03:30:46;10.40;99.90
20977;DHT22;10647;51.016;3.720;2023-04-24T03:33:14;10.50;99.90
20977;DHT22;10647;51.016;3.720;2023-04-24T03:35:41;10.60;99.90
20977;DHT22;10647;51.016;3.720;2023-04-24T03:38:09;10.60;99.90
20977;DHT22;10647;51.016;3.720;2023-04-24T03:40:36;10.50;99.90
20977;DHT22;10647;51.016;3.720;2023-04-24T03:43:04;10.50;99.90
20977;DHT22;10647;51.016;3.720;2023-04-24T03:45:32;10.40;99.90
20977;DHT22;10647;51.016;3.720;2023-04-24T03:47:59;10.30;99.90
20977;DHT22;10647;51.016;3.720;2023-04-24T03:50:28;10.10;99.90
20977;DHT22;10647;51.016;3.720;2023-04-24T03:52:56;10.10;99.90
20977;DHT22;10647;51.016;3.720;2023-04-24T03:55:23;10.10;99.90
20977;DHT22;10647;51.016;3.720;2023-04-24T03:57:51;10.20;99.90
20977;DHT22;10647;51.016;3.720;2023-04-24T04:00:19;10.30;99.90
20977;DHT22;10647;51.016;3.720;2023-04-24T04:02:48;10.10;99.90
20977;DHT22;10647;51.016;3.720;2023-04-24T04:05:16;10.10;99.90
20977;DHT22;10647;51.016;3.720;2023-04-24T04:07:44;10.20;99.90
20977;DHT22;10647;51.016;3.720;2023-04-24T04:10:12;10.20;99.90
20977;DHT22;10647;51.016;3.720;2023-04-24T04:12:39;10.30;99.90
20977;DHT22;10647;51.016;3.720;2023-04-24T04:15:07;10.10;99.90
20977;DHT22;10647;51.016;3.720;2023-04-24T04:17:36;10.10;99.90
20977;DHT22;10647;51.016;3.720;2023-04-24T04:20:05;10.10;99.90
20977;DHT22;10647;51.016;3.720;2023-04-24T04:22:42;10.20;99.90
20977;DHT22;10647;51.016;3.720;2023-04-24T04:25:09;10.20;99.90
20977;DHT22;10647;51.016;3.720;2023-04-24T04:27:37;10.30;99.90
20977;DHT22;10647;51.016;3.720;2023-04-24T04:30:06;10.30;99.90
20977;DHT22;10647;51.016;3.720;2023-04-24T04:32:35;10.30;99.90
20977;DHT22;10647;51.016;3.720;2023-04-24T04:35:02;10.20;99.90
20977;DHT22;10647;51.016;3.720;2023-04-24T04:37:31;10.20;99.90
20977;DHT22;10647;51.016;3.720;2023-04-24T04:40:02;10.30;99.90
20977;DHT22;10647;51.016;3.720;2023-04-24T04:42:32;10.30;99.90
20977;DHT22;10647;51.016;3.720;2023-04-24T04:45:04;10.20;99.90
20977;DHT22;10647;51.016;3.720;2023-04-24T04:47:32;10.30;99.90
20977;DHT22;10647;51.016;3.720;2023-04-24T04:50:00;10.30;99.90
20977;DHT22;10647;51.016;3.720;2023-04-24T04:52:30;10.30;99.90
20977;DHT22;10647;51.016;3.720;2023-04-24T04:54:58;10.40;99.90
20977;DHT22;10647;51.016;3.720;2023-04-24T04:57:25;10.30;99.90
20977;DHT22;10647;51.016;3.720;2023-04-24T04:59:53;10.30;99.90
20977;DHT22;10647;51.016;3.720;2023-04-24T05:02:21;10.30;99.90
20977;DHT22;10647;51.016;3.720;2023-04-24T05:04:48;10.40;99.90
20977;DHT22;10647;51.016;3.720;2023-04-24T05:07:16;10.50;99.90
20977;DHT22;10647;51.016;3.720;2023-04-24T05:09:44;10.50;99.90
20977;DHT22;10647;51.016;3.720;2023-04-24T05:12:12;10.30;99.90
20977;DHT22;10647;51.016;3.720;2023-04-24T05:14:40;10.40;99.90
20977;DHT22;10647;51.016;3.720;2023-04-24T05:17:08;10.40;99.90
20977;DHT22;10647;51.016;3.720;2023-04-24T05:19:36;10.50;99.90
20977;DHT22;10647;51.016;3.720;2023-04-24T05:22:05;10.50;99.90
20977;DHT22;10647;51.016;3.720;2023-04-24T05:27:24;10.30;99.90
20977;DHT22;10647;51.016;3.720;2023-04-24T05:29:55;10.30;99.90
20977;DHT22;10647;51.016;3.720;2023-04-24T05:32:23;10.30;99.90
20977;DHT22;10647;51.016;3.720;2023-04-24T05:34:53;10.40;99.90
20977;DHT22;10647;51.016;3.720;2023-04-24T05:37:21;10.40;99.90
20977;DHT22;10647;51.016;3.720;2023-04-24T05:39:49;10.40;99.90
20977;DHT22;10647;51.016;3.720;2023-04-24T05:42:17;10.40;99.90
20977;DHT22;10647;51.016;3.720;2023-04-24T05:44:44;10.30;99.90
20977;DHT22;10647;51.016;3.720;2023-04-24T05:47:12;10.40;99.90
20977;DHT22;10647;51.016;3.720;2023-04-24T05:49:39;10.40;99.90
20977;DHT22;10647;51.016;3.720;2023-04-24T05:52:07;10.50;99.90
20977;DHT22;10647;51.016;3.720;2023-04-24T05:54:36;10.50;99.90
20977;DHT22;10647;51.016;3.720;2023-04-24T05:57:03;10.60;99.90
20977;DHT22;10647;51.016;3.720;2023-04-24T05:59:36;10.60;99.90
20977;DHT22;10647;51.016;3.720;2023-04-24T06:02:06;10.60;99.90
20977;DHT22;10647;51.016;3.720;2023-04-24T06:04:36;10.60;99.90
20977;DHT22;10647;51.016;3.720;2023-04-24T06:07:03;10.60;99.90
20977;DHT22;10647;51.016;3.720;2023-04-24T06:09:31;10.60;99.90
20977;DHT22;10647;51.016;3.720;2023-04-24T06:12:00;10.70;99.90
20977;DHT22;10647;51.016;3.720;2023-04-24T06:14:27;10.70;99.90
20977;DHT22;10647;51.016;3.720;2023-04-24T06:16:55;10.60;99.90
20977;DHT22;10647;51.016;3.720;2023-04-24T06:19:23;10.70;99.90
20977;DHT22;10647;51.016;3.720;2023-04-24T06:21:50;10.80;99.90
20977;DHT22;10647;51.016;3.720;2023-04-24T06:24:18;10.90;99.90
20977;DHT22;10647;51.016;3.720;2023-04-24T06:26:45;10.90;99.90
20977;DHT22;10647;51.016;3.720;2023-04-24T06:29:13;11.00;99.90
20977;DHT22;10647;51.016;3.720;2023-04-24T06:31:40;11.20;99.90
20977;DHT22;10647;51.016;3.720;2023-04-24T06:34:08;11.60;99.90
20977;DHT22;10647;51.016;3.720;2023-04-24T06:36:36;11.70;99.90
20977;DHT22;10647;51.016;3.720;2023-04-24T06:39:05;11.40;99.90
20977;DHT22;10647;51.016;3.720;2023-04-24T06:41:33;11.20;99.90
20977;DHT22;10647;51.016;3.720;2023-04-24T06:44:01;11.10;99.90
20977;DHT22;10647;51.016;3.720;2023-04-24T06:46:28;11.00;99.90
20977;DHT22;10647;51.016;3.720;2023-04-24T06:48:56;11.00;99.90
20977;DHT22;10647;51.016;3.720;2023-04-24T06:51:25;11.10;99.90
20977;DHT22;10647;51.016;3.720;2023-04-24T06:53:53;11.20;99.90
20977;DHT22;10647;51.016;3.720;2023-04-24T06:56:22;11.50;99.90
20977;DHT22;10647;51.016;3.720;2023-04-24T06:58:51;11.50;99.90
20977;DHT22;10647;51.016;3.720;2023-04-24T07:01:18;11.60;99.90
20977;DHT22;10647;51.016;3.720;2023-04-24T07:04:05;11.50;99.90
20977;DHT22;10647;51.016;3.720;2023-04-24T07:06:33;11.40;99.90
20977;DHT22;10647;51.016;3.720;2023-04-24T07:09:01;11.50;99.90
20977;DHT22;10647;51.016;3.720;2023-04-24T07:11:30;11.40;99.90
20977;DHT22;10647;51.016;3.720;2023-04-24T07:13:58;11.30;99.90
20977;DHT22;10647;51.016;3.720;2023-04-24T07:16:25;11.10;99.90
20977;DHT22;10647;51.016;3.720;2023-04-24T07:18:53;11.00;99.90
20977;DHT22;10647;51.016;3.720;2023-04-24T07:21:21;11.10;99.90
20977;DHT22;10647;51.016;3.720;2023-04-24T07:23:48;11.20;99.90
20977;DHT22;10647;51.016;3.720;2023-04-24T07:26:16;11.30;99.90
20977;DHT22;10647;51.016;3.720;2023-04-24T07:28:45;11.30;99.90
20977;DHT22;10647;51.016;3.720;2023-04-24T07:31:13;11.60;99.90
20977;DHT22;10647;51.016;3.720;2023-04-24T07:33:41;11.60;99.90
20977;DHT22;10647;51.016;3.720;2023-04-24T07:36:08;11.60;99.90
20977;DHT22;10647;51.016;3.720;2023-04-24T07:38:37;11.50;99.90
20977;DHT22;10647;51.016;3.720;2023-04-24T07:41:05;11.20;99.90
20977;DHT22;10647;51.016;3.720;2023-04-24T07:43:32;11.40;99.90
20977;DHT22;10647;51.016;3.720;2023-04-24T07:46:00;11.60;99.90
20977;DHT22;10647;51.016;3.720;2023-04-24T07:48:27;11.70;99.90
20977;DHT22;10647;51.016;3.720;2023-04-24T07:50:55;11.90;99.90
20977;DHT22;10647;51.016;3.720;2023-04-24T07:53:23;11.90;99.90
20977;DHT22;10647;51.016;3.720;2023-04-24T07:55:50;11.80;99.90
20977;DHT22;10647;51.016;3.720;2023-04-24T07:58:18;11.70;99.90
20977;DHT22;10647;51.016;3.720;2023-04-24T08:00:45;11.70;99.90
20977;DHT22;10647;51.016;3.720;2023-04-24T08:03:13;11.80;99.90
20977;DHT22;10647;51.016;3.720;2023-04-24T08:05:41;12.30;99.90
20977;DHT22;10647;51.016;3.720;2023-04-24T08:08:09;12.50;99.90
20977;DHT22;10647;51.016;3.720;2023-04-24T08:10:37;12.70;99.90
20977;DHT22;10647;51.016;3.720;2023-04-24T08:13:24;12.90;99.90
20977;DHT22;10647;51.016;3.720;2023-04-24T08:15:54;13.00;99.90
20977;DHT22;10647;51.016;3.720;2023-04-24T08:18:23;13.00;99.90
20977;DHT22;10647;51.016;3.720;2023-04-24T08:20:51;12.20;99.90
20977;DHT22;10647;51.016;3.720;2023-04-24T08:23:19;12.30;99.90
20977;DHT22;10647;51.016;3.720;2023-04-24T08:25:53;12.40;99.90
20977;DHT22;10647;51.016;3.720;2023-04-24T08:28:30;12.90;99.90
20977;DHT22;10647;51.016;3.720;2023-04-24T08:30:57;12.60;99.90
20977;DHT22;10647;51.016;3.720;2023-04-24T08:33:27;12.20;99.90
20977;DHT22;10647;51.016;3.720;2023-04-24T08:35:56;12.60;99.90
20977;DHT22;10647;51.016;3.720;2023-04-24T08:38:24;12.70;99.90
20977;DHT22;10647;51.016;3.720;2023-04-24T08:40:51;12.70;99.90
20977;DHT22;10647;51.016;3.720;2023-04-24T08:43:21;12.90;99.90
20977;DHT22;10647;51.016;3.720;2023-04-24T08:45:49;13.70;99.90
20977;DHT22;10647;51.016;3.720;2023-04-24T08:48:21;13.90;99.90
20977;DHT22;10647;51.016;3.720;2023-04-24T08:50:54;14.20;99.90
20977;DHT22;10647;51.016;3.720;2023-04-24T08:53:32;13.90;99.90
20977;DHT22;10647;51.016;3.720;2023-04-24T08:56:01;14.10;99.90
20977;DHT22;10647;51.016;3.720;2023-04-24T08:58:32;14.40;99.90
20977;DHT22;10647;51.016;3.720;2023-04-24T09:01:00;14.10;99.90
20977;DHT22;10647;51.016;3.720;2023-04-24T09:03:29;14.30;99.90
20977;DHT22;10647;51.016;3.720;2023-04-24T09:05:58;14.40;99.90
20977;DHT22;10647;51.016;3.720;2023-04-24T09:08:28;14.60;99.90
20977;DHT22;10647;51.016;3.720;2023-04-24T09:10:58;15.00;99.90
20977;DHT22;10647;51.016;3.720;2023-04-24T09:13:38;14.90;99.90
20977;DHT22;10647;51.016;3.720;2023-04-24T09:19:01;15.40;99.90
20977;DHT22;10647;51.016;3.720;2023-04-24T09:21:34;15.80;99.90
20977;DHT22;10647;51.016;3.720;2023-04-24T09:24:04;15.60;99.90
20977;DHT22;10647;51.016;3.720;2023-04-24T09:26:34;15.90;99.90
20977;DHT22;10647;51.016;3.720;2023-04-24T09:29:03;16.10;99.90
20977;DHT22;10647;51.016;3.720;2023-04-24T09:31:31;16.20;99.90
20977;DHT22;10647;51.016;3.720;2023-04-24T09:34:01;16.10;99.90
20977;DHT22;10647;51.016;3.720;2023-04-24T09:36:32;16.00;99.90
20977;DHT22;10647;51.016;3.720;2023-04-24T09:39:05;16.10;99.90
20977;DHT22;10647;51.016;3.720;2023-04-24T09:41:34;16.10;99.90
20977;DHT22;10647;51.016;3.720;2023-04-24T09:44:13;16.20;99.90
20977;DHT22;10647;51.016;3.720;2023-04-24T09:46:42;16.20;99.90
20977;DHT22;10647;51.016;3.720;2023-04-24T09:49:15;15.90;99.90
20977;DHT22;10647;51.016;3.720;2023-04-24T09:51:43;16.10;99.90
20977;DHT22;10647;51.016;3.720;2023-04-24T09:54:16;16.20;99.90
20977;DHT22;10647;51.016;3.720;2023-04-24T09:56:45;16.10;99.90
20977;DHT22;10647;51.016;3.720;2023-04-24T09:59:13;15.40;99.90
20977;DHT22;10647;51.016;3.720;2023-04-24T10:01:41;15.60;99.90
20977;DHT22;10647;51.016;3.720;2023-04-24T10:04:21;16.20;99.90
20977;DHT22;10647;51.016;3.720;2023-04-24T10:06:51;16.70;99.90
20977;DHT22;10647;51.016;3.720;2023-04-24T10:09:38;17.10;99.90
20977;DHT22;10647;51.016;3.720;2023-04-24T10:12:06;16.60;99.90
20977;DHT22;10647;51.016;3.720;2023-04-24T10:14:34;16.20;99.90
20977;DHT22;10647;51.016;3.720;2023-04-24T10:17:04;16.30;99.90
20977;DHT22;10647;51.016;3.720;2023-04-24T10:19:33;16.40;99.90
20977;DHT22;10647;51.016;3.720;2023-04-24T10:22:04;16.10;99.90
20977;DHT22;10647;51.016;3.720;2023-04-24T10:24:33;16.20;99.90
20977;DHT22;10647;51.016;3.720;2023-04-24T10:27:05;16.20;99.90
20977;DHT22;10647;51.016;3.720;2023-04-24T10:29:36;16.60;99.90
20977;DHT22;10647;51.016;3.720;2023-04-24T10:32:06;17.00;99.90
20977;DHT22;10647;51.016;3.720;2023-04-24T10:34:37;17.30;99.90
20977;DHT22;10647;51.016;3.720;2023-04-24T10:37:04;17.10;99.90
20977;DHT22;10647;51.016;3.720;2023-04-24T10:39:32;17.10;99.90
20977;DHT22;10647;51.016;3.720;2023-04-24T10:42:01;17.20;99.90
20977;DHT22;10647;51.016;3.720;2023-04-24T10:44:36;17.40;99.90
20977;DHT22;10647;51.016;3.720;2023-04-24T10:47:04;17.50;99.90
20977;DHT22;10647;51.016;3.720;2023-04-24T10:49:32;17.50;99.90
20977;DHT22;10647;51.016;3.720;2023-04-24T10:52:03;17.40;99.90
20977;DHT22;10647;51.016;3.720;2023-04-24T10:54:42;17.10;99.90
20977;DHT22;10647;51.016;3.720;2023-04-24T10:57:26;16.90;99.90
20977;DHT22;10647;51.016;3.720;2023-04-24T11:00:20;17.30;99.90
20977;DHT22;10647;51.016;3.720;2023-04-24T11:02:49;17.80;99.90
20977;DHT22;10647;51.016;3.720;2023-04-24T11:05:20;17.80;99.90
20977;DHT22;10647;51.016;3.720;2023-04-24T11:08:12;17.80;99.90
20977;DHT22;10647;51.016;3.720;2023-04-24T11:10:59;17.50;99.90
20977;DHT22;10647;51.016;3.720;2023-04-24T11:24:49;17.60;99.90
20977;DHT22;10647;51.016;3.720;2023-04-24T11:27:22;17.00;99.90
20977;DHT22;10647;51.016;3.720;2023-04-24T11:35:22;17.20;99.90
20977;DHT22;10647;51.016;3.720;2023-04-24T11:37:50;17.30;99.90
20977;DHT22;10647;51.016;3.720;2023-04-24T11:40:19;17.00;99.90
20977;DHT22;10647;51.016;3.720;2023-04-24T11:42:50;16.60;99.90
20977;DHT22;10647;51.016;3.720;2023-04-24T11:45:23;16.70;99.90
20977;DHT22;10647;51.016;3.720;2023-04-24T11:47:51;17.20;99.90
20977;DHT22;10647;51.016;3.720;2023-04-24T11:50:21;17.80;99.90
20977;DHT22;10647;51.016;3.720;2023-04-24T11:52:49;17.90;99.90
20977;DHT22;10647;51.016;3.720;2023-04-24T11:57:58;17.60;99.90
20977;DHT22;10647;51.016;3.720;2023-04-24T12:00:26;18.20;99.90
20977;DHT22;10647;51.016;3.720;2023-04-24T12:03:11;18.60;99.90
20977;DHT22;10647;51.016;3.720;2023-04-24T12:06:07;18.60;99.90
20977;DHT22;10647;51.016;3.720;2023-04-24T12:08:35;19.00;99.90
20977;DHT22;10647;51.016;3.720;2023-04-24T12:11:04;18.70;99.90
20977;DHT22;10647;51.016;3.720;2023-04-24T12:13:34;19.00;99.90
20977;DHT22;10647;51.016;3.720;2023-04-24T12:16:05;19.30;99.90
20977;DHT22;10647;51.016;3.720;2023-04-24T12:18:34;19.50;99.90
20977;DHT22;10647;51.016;3.720;2023-04-24T12:21:22;18.70;99.90
20977;DHT22;10647;51.016;3.720;2023-04-24T12:23:55;18.80;99.90
20977;DHT22;10647;51.016;3.720;2023-04-24T12:26:26;18.90;99.90
20977;DHT22;10647;51.016;3.720;2023-04-24T12:28:55;19.40;99.90
20977;DHT22;10647;51.016;3.720;2023-04-24T12:31:25;19.40;99.90
20977;DHT22;10647;51.016;3.720;2023-04-24T12:33:53;19.90;99.90
20977;DHT22;10647;51.016;3.720;2023-04-24T12:36:22;19.50;99.90
20977;DHT22;10647;51.016;3.720;2023-04-24T12:38:52;20.10;99.90
20977;DHT22;10647;51.016;3.720;2023-04-24T12:41:21;19.90;99.90
20977;DHT22;10647;51.016;3.720;2023-04-24T12:43:53;19.90;99.90
20977;DHT22;10647;51.016;3.720;2023-04-24T12:46:22;20.00;99.90
20977;DHT22;10647;51.016;3.720;2023-04-24T12:48:50;20.10;99.90
20977;DHT22;10647;51.016;3.720;2023-04-24T12:51:18;19.80;99.90
20977;DHT22;10647;51.016;3.720;2023-04-24T12:53:45;19.50;99.90
20977;DHT22;10647;51.016;3.720;2023-04-24T12:56:13;19.20;98.90
20977;DHT22;10647;51.016;3.720;2023-04-24T12:58:43;19.30;99.70
20977;DHT22;10647;51.016;3.720;2023-04-24T13:01:11;20.60;99.20
20977;DHT22;10647;51.016;3.720;2023-04-24T13:03:40;25.90;96.50
20977;DHT22;10647;51.016;3.720;2023-04-24T13:06:09;29.50;86.60
20977;DHT22;10647;51.016;3.720;2023-04-24T13:08:36;30.60;77.10
20977;DHT22;10647;51.016;3.720;2023-04-24T13:11:04;27.70;70.00
20977;DHT22;10647;51.016;3.720;2023-04-24T13:13:34;28.70;69.60
20977;DHT22;10647;51.016;3.720;2023-04-24T13:16:02;29.30;66.20
20977;DHT22;10647;51.016;3.720;2023-04-24T13:18:29;27.90;64.60
20977;DHT22;10647;51.016;3.720;2023-04-24T13:20:58;29.10;64.60
20977;DHT22;10647;51.016;3.720;2023-04-24T13:23:26;30.50;61.70
20977;DHT22;10647;51.016;3.720;2023-04-24T13:25:54;31.80;58.60
20977;DHT22;10647;51.016;3.720;2023-04-24T13:28:24;32.80;58.20
20977;DHT22;10647;51.016;3.720;2023-04-24T13:30:51;32.90;55.40
20977;DHT22;10647;51.016;3.720;2023-04-24T13:33:19;30.60;56.00
20977;DHT22;10647;51.016;3.720;2023-04-24T13:35:46;31.70;56.20
20977;DHT22;10647;51.016;3.720;2023-04-24T13:38:15;32.00;53.10
20977;DHT22;10647;51.016;3.720;2023-04-24T13:40:43;29.70;53.60
20977;DHT22;10647;51.016;3.720;2023-04-24T13:43:16;30.20;54.80
20977;DHT22;10647;51.016;3.720;2023-04-24T13:45:43;30.00;54.10
20977;DHT22;10647;51.016;3.720;2023-04-24T13:48:11;30.50;53.10
20977;DHT22;10647;51.016;3.720;2023-04-24T13:50:41;31.00;53.00
20977;DHT22;10647;51.016;3.720;2023-04-24T13:53:08;31.50;53.60
20977;DHT22;10647;51.016;3.720;2023-04-24T13:55:36;32.80;51.90
20977;DHT22;10647;51.016;3.720;2023-04-24T13:58:06;34.30;51.00
20977;DHT22;10647;51.016;3.720;2023-04-24T14:00:34;34.50;49.60
20977;DHT22;10647;51.016;3.720;2023-04-24T14:03:02;33.50;48.40
20977;DHT22;10647;51.016;3.720;2023-04-24T14:05:30;34.30;48.60
20977;DHT22;10647;51.016;3.720;2023-04-24T14:07:58;32.80;47.90
20977;DHT22;10647;51.016;3.720;2023-04-24T14:10:26;34.20;49.20
20977;DHT22;10647;51.016;3.720;2023-04-24T14:12:54;34.40;47.90
20977;DHT22;10647;51.016;3.720;2023-04-24T14:15:22;32.60;47.70
20977;DHT22;10647;51.016;3.720;2023-04-24T14:17:50;28.00;50.40
20977;DHT22;10647;51.016;3.720;2023-04-24T14:20:18;30.20;51.70
20977;DHT22;10647;51.016;3.720;2023-04-24T14:22:46;30.60;51.00
20977;DHT22;10647;51.016;3.720;2023-04-24T14:25:13;28.80;51.60
20977;DHT22;10647;51.016;3.720;2023-04-24T14:27:41;27.70;52.60
20977;DHT22;10647;51.016;3.720;2023-04-24T14:30:10;25.60;54.70
20977;DHT22;10647;51.016;3.720;2023-04-24T14:32:39;26.30;54.90
20977;DHT22;10647;51.016;3.720;2023-04-24T14:35:07;24.90;56.70
20977;DHT22;10647;51.016;3.720;2023-04-24T14:37:35;25.40;56.30
20977;DHT22;10647;51.016;3.720;2023-04-24T14:40:03;25.30;57.10
20977;DHT22;10647;51.016;3.720;2023-04-24T14:42:33;25.50;57.10
20977;DHT22;10647;51.016;3.720;2023-04-24T14:45:03;25.60;56.80
20977;DHT22;10647;51.016;3.720;2023-04-24T14:47:32;25.00;56.10
20977;DHT22;10647;51.016;3.720;2023-04-24T14:50:00;24.00;57.50
20977;DHT22;10647;51.016;3.720;2023-04-24T14:52:27;23.60;59.30
20977;DHT22;10647;51.016;3.720;2023-04-24T14:54:58;23.40;59.40
20977;DHT22;10647;51.016;3.720;2023-04-24T14:57:25;22.90;60.40
20977;DHT22;10647;51.016;3.720;2023-04-24T14:59:53;22.20;61.10
20977;DHT22;10647;51.016;3.720;2023-04-24T15:02:22;21.70;63.10
20977;DHT22;10647;51.016;3.720;2023-04-24T15:04:50;21.50;64.60
20977;DHT22;10647;51.016;3.720;2023-04-24T15:07:17;21.60;64.60
20977;DHT22;10647;51.016;3.720;2023-04-24T15:09:48;21.30;65.10
20977;DHT22;10647;51.016;3.720;2023-04-24T15:12:15;21.10;65.20
20977;DHT22;10647;51.016;3.720;2023-04-24T15:14:43;20.40;66.90
20977;DHT22;10647;51.016;3.720;2023-04-24T15:17:12;20.30;67.90
20977;DHT22;10647;51.016;3.720;2023-04-24T15:19:39;20.20;68.10
20977;DHT22;10647;51.016;3.720;2023-04-24T15:22:07;19.80;69.10
20977;DHT22;10647;51.016;3.720;2023-04-24T15:24:34;19.70;69.20
20977;DHT22;10647;51.016;3.720;2023-04-24T15:27:02;19.70;69.80
20977;DHT22;10647;51.016;3.720;2023-04-24T15:29:30;19.20;69.40
20977;DHT22;10647;51.016;3.720;2023-04-24T15:31:58;19.30;70.10
20977;DHT22;10647;51.016;3.720;2023-04-24T15:34:31;19.70;69.20
20977;DHT22;10647;51.016;3.720;2023-04-24T15:37:00;19.90;68.70
20977;DHT22;10647;51.016;3.720;2023-04-24T15:39:28;20.10;68.40
20977;DHT22;10647;51.016;3.720;2023-04-24T15:41:56;20.20;68.10
20977;DHT22;10647;51.016;3.720;2023-04-24T15:44:25;20.30;67.90
20977;DHT22;10647;51.016;3.720;2023-04-24T15:46:52;20.10;67.40
20977;DHT22;10647;51.016;3.720;2023-04-24T15:49:21;20.00;67.90
20977;DHT22;10647;51.016;3.720;2023-04-24T15:51:49;19.60;68.20
20977;DHT22;10647;51.016;3.720;2023-04-24T15:54:17;19.80;68.60
20977;DHT22;10647;51.016;3.720;2023-04-24T15:56:44;19.80;68.60
20977;DHT22;10647;51.016;3.720;2023-04-24T15:59:12;19.90;68.30
20977;DHT22;10647;51.016;3.720;2023-04-24T16:01:39;19.60;68.10
20977;DHT22;10647;51.016;3.720;2023-04-24T16:04:08;19.80;69.50
20977;DHT22;10647;51.016;3.720;2023-04-24T16:06:35;19.70;69.40
20977;DHT22;10647;51.016;3.720;2023-04-24T16:09:04;19.40;69.40
20977;DHT22;10647;51.016;3.720;2023-04-24T16:11:33;19.20;70.40